createdAt,value
2022-10-04T00:02:05.786Z,2.30
2022-10-04T00:04:19.463Z,2.30
2022-10-04T00:06:28.270Z,2.30
2022-10-04T00:08:41.066Z,2.57
2022-10-04T00:10:49.706Z,2.33
2022-10-04T00:13:00.393Z,1.97
2022-10-04T00:15:20.197Z,2.30
2022-10-04T00:17:31.839Z,2.10
2022-10-04T00:19:57.040Z,1.70
2022-10-04T00:22:13.345Z,2.07
2022-10-04T00:24:23.326Z,2.00
2022-10-04T00:26:50.410Z,1.97
2022-10-04T00:28:58.982Z,1.77
2022-10-04T00:31:31.860Z,1.90
2022-10-04T00:33:41.296Z,2.00
2022-10-04T00:35:52.580Z,1.90
2022-10-04T00:38:02.427Z,1.80
2022-10-04T00:40:13.974Z,1.57
2022-10-04T00:42:32.546Z,1.90
2022-10-04T00:44:44.543Z,1.90
2022-10-04T00:46:54.138Z,1.67
2022-10-04T00:49:04.495Z,1.50
2022-10-04T00:51:21.736Z,1.70
2022-10-04T00:53:40.879Z,2.07
2022-10-04T00:55:52.200Z,1.40
2022-10-04T00:58:02.139Z,1.50
2022-10-04T01:00:14.222Z,1.70
2022-10-04T01:02:24.378Z,1.47
2022-10-04T01:04:39.107Z,2.00
2022-10-04T01:06:49.613Z,1.70
2022-10-04T01:09:04.083Z,1.50
2022-10-04T01:11:16.354Z,1.40
2022-10-04T01:13:27.639Z,1.50
2022-10-04T01:15:43.289Z,1.40
2022-10-04T01:18:25.704Z,1.27
2022-10-04T01:20:36.471Z,1.70
2022-10-04T01:22:53.063Z,1.50
2022-10-04T01:25:01.587Z,1.80
2022-10-04T01:27:25.002Z,1.67
2022-10-04T01:29:34.731Z,1.47
2022-10-04T01:31:45.734Z,1.73
2022-10-04T01:33:54.721Z,1.70
2022-10-04T01:36:03.750Z,1.70
2022-10-04T01:38:16.897Z,1.70
2022-10-04T01:40:25.607Z,1.60
2022-10-04T01:42:35.398Z,1.93
2022-10-04T01:44:47.709Z,1.30
2022-10-04T01:46:57.460Z,1.60
2022-10-04T01:49:07.967Z,1.20
2022-10-04T01:51:20.646Z,1.40
2022-10-04T01:53:31.839Z,1.23
2022-10-04T01:55:42.542Z,1.43
2022-10-04T01:57:52.860Z,1.80
2022-10-04T02:00:03.901Z,1.70
2022-10-04T02:02:19.710Z,1.50
2022-10-04T02:04:29.761Z,1.40
2022-10-04T02:06:40.402Z,1.80
2022-10-04T02:08:51.740Z,1.60
2022-10-04T02:11:01.281Z,1.70
2022-10-04T02:13:11.610Z,1.47
2022-10-04T02:15:21.712Z,1.40
2022-10-04T02:17:32.871Z,1.63
2022-10-04T02:19:42.932Z,1.70
2022-10-04T02:21:52.996Z,1.43
2022-10-04T02:24:03.531Z,2.03
2022-10-04T02:26:13.231Z,1.50
2022-10-04T02:28:21.999Z,1.50
2022-10-04T02:30:31.212Z,1.50
2022-10-04T02:33:00.624Z,1.60
2022-10-04T02:35:09.902Z,1.20
2022-10-04T02:37:19.034Z,1.50
2022-10-04T02:39:32.313Z,1.20
2022-10-04T02:41:45.608Z,1.40
2022-10-04T02:43:57.768Z,1.30
2022-10-04T02:46:09.424Z,1.90
2022-10-04T02:48:24.378Z,1.40
2022-10-04T02:50:36.095Z,1.47
2022-10-04T02:52:46.891Z,1.70
2022-10-04T02:55:02.817Z,1.50
2022-10-04T02:57:16.297Z,1.50
2022-10-04T02:59:25.124Z,1.00
2022-10-04T03:01:45.347Z,1.60
2022-10-04T03:03:55.273Z,1.50
2022-10-04T03:06:06.727Z,2.10
2022-10-04T03:08:17.806Z,1.33
2022-10-04T03:10:28.742Z,1.27
2022-10-04T03:12:39.159Z,1.30
2022-10-04T03:14:50.661Z,1.20
2022-10-04T03:17:01.273Z,1.60
2022-10-04T03:19:10.521Z,1.10
2022-10-04T03:21:21.285Z,1.10
2022-10-04T03:23:33.111Z,1.10
2022-10-04T03:25:47.647Z,1.30
2022-10-04T03:27:57.679Z,1.20
2022-10-04T03:30:06.942Z,1.27
2022-10-04T03:32:17.661Z,1.10
2022-10-04T03:34:27.556Z,1.33
2022-10-04T03:36:37.021Z,1.47
2022-10-04T03:38:46.747Z,1.20
2022-10-04T03:40:58.532Z,1.00
2022-10-04T03:43:07.882Z,1.07
2022-10-04T03:45:17.953Z,1.20
2022-10-04T03:47:27.471Z,0.90
2022-10-04T03:49:38.370Z,1.40
2022-10-04T03:51:49.192Z,1.20
2022-10-04T03:53:59.277Z,1.60
2022-10-04T03:56:14.597Z,1.20
2022-10-04T03:58:25.686Z,1.30
2022-10-04T04:00:35.088Z,1.40
2022-10-04T04:02:48.349Z,1.30
2022-10-04T04:05:03.241Z,1.30
2022-10-04T04:07:14.978Z,1.30
2022-10-04T04:09:26.002Z,1.00
2022-10-04T04:11:38.032Z,1.30
2022-10-04T04:13:49.660Z,1.83
2022-10-04T04:15:59.215Z,1.33
2022-10-04T04:18:09.299Z,1.30
2022-10-04T04:20:21.324Z,1.07
2022-10-04T04:22:31.706Z,1.20
2022-10-04T04:24:40.599Z,1.30
2022-10-04T04:26:54.396Z,1.40
2022-10-04T04:29:06.203Z,1.30
2022-10-04T04:31:20.213Z,1.30
2022-10-04T04:33:31.209Z,1.30
2022-10-04T04:35:40.219Z,1.50
2022-10-04T04:38:03.993Z,1.10
2022-10-04T04:40:21.962Z,1.20
2022-10-04T04:42:33.337Z,1.40
2022-10-04T04:44:48.776Z,1.20
2022-10-04T04:47:00.872Z,1.20
2022-10-04T04:49:09.935Z,1.30
2022-10-04T04:51:22.046Z,1.00
2022-10-04T04:53:32.138Z,1.30
2022-10-04T04:56:02.442Z,1.03
2022-10-04T04:58:18.898Z,1.13
2022-10-04T05:00:31.309Z,1.90
2022-10-04T05:02:40.418Z,1.40
2022-10-04T05:04:50.509Z,1.20
2022-10-04T05:07:03.846Z,1.80
2022-10-04T05:09:23.819Z,1.20
2022-10-04T05:11:34.184Z,1.50
2022-10-04T05:13:45.915Z,1.27
2022-10-04T05:15:56.420Z,1.40
2022-10-04T05:18:17.889Z,1.43
2022-10-04T05:20:27.434Z,1.63
2022-10-04T05:22:37.901Z,1.20
2022-10-04T05:24:47.602Z,1.27
2022-10-04T05:26:57.220Z,1.30
2022-10-04T05:29:12.751Z,1.60
2022-10-04T05:31:31.064Z,1.37
2022-10-04T05:33:41.081Z,0.93
2022-10-04T05:35:57.354Z,1.13
2022-10-04T05:38:08.419Z,1.27
2022-10-04T05:40:29.128Z,1.30
2022-10-04T05:42:39.948Z,1.30
2022-10-04T05:44:53.482Z,1.27
2022-10-04T05:47:03.350Z,0.93
2022-10-04T05:49:18.934Z,1.50
2022-10-04T05:51:30.276Z,1.07
2022-10-04T05:53:39.055Z,1.30
2022-10-04T05:55:53.266Z,1.83
2022-10-04T05:58:08.528Z,1.40
2022-10-04T06:00:20.885Z,1.30
2022-10-04T06:02:37.247Z,1.20
2022-10-04T06:04:58.114Z,1.13
2022-10-04T06:07:11.704Z,0.90
2022-10-04T06:09:28.279Z,1.10
2022-10-04T06:11:43.405Z,1.10
2022-10-04T06:14:02.113Z,1.10
2022-10-04T06:16:17.322Z,1.20
2022-10-04T06:18:38.524Z,1.00
2022-10-04T06:20:55.013Z,1.20
2022-10-04T06:23:04.407Z,0.83
2022-10-04T06:25:14.707Z,1.10
2022-10-04T06:27:27.947Z,1.30
2022-10-04T06:29:38.881Z,1.13
2022-10-04T06:32:05.003Z,1.30
2022-10-04T06:34:20.402Z,0.93
2022-10-04T06:36:46.088Z,0.90
2022-10-04T06:39:05.292Z,1.00
2022-10-04T06:41:31.168Z,1.33
2022-10-04T06:43:49.410Z,1.20
2022-10-04T06:46:14.038Z,1.20
2022-10-04T06:48:40.376Z,0.87
2022-10-04T06:50:52.189Z,1.10
2022-10-04T06:53:06.377Z,1.03
2022-10-04T06:55:24.167Z,1.17
2022-10-04T06:57:58.611Z,1.10
2022-10-04T07:00:11.715Z,1.27
2022-10-04T07:02:22.819Z,1.00
2022-10-04T07:05:06.510Z,1.23
2022-10-04T07:07:36.780Z,1.20
2022-10-04T07:09:46.755Z,1.13
2022-10-04T07:11:57.618Z,1.40
2022-10-04T07:14:08.618Z,1.10
2022-10-04T07:16:27.071Z,0.87
2022-10-04T07:18:45.346Z,1.20
2022-10-04T07:21:00.882Z,1.00
2022-10-04T07:23:16.163Z,1.00
2022-10-04T07:25:29.045Z,1.47
2022-10-04T07:27:44.954Z,1.27
2022-10-04T07:29:55.171Z,1.03
2022-10-04T07:32:09.650Z,0.90
2022-10-04T07:34:19.612Z,1.30
2022-10-04T07:36:31.125Z,1.07
2022-10-04T07:38:48.807Z,1.30
2022-10-04T07:41:07.654Z,1.07
2022-10-04T07:43:22.204Z,1.20
2022-10-04T07:45:32.813Z,0.90
2022-10-04T07:47:43.367Z,1.10
2022-10-04T07:49:54.382Z,0.90
2022-10-04T07:52:15.961Z,0.97
2022-10-04T07:54:29.058Z,1.10
2022-10-04T07:56:41.388Z,0.93
2022-10-04T07:58:54.458Z,1.13
2022-10-04T08:01:04.960Z,0.90
2022-10-04T08:03:23.629Z,0.80
2022-10-04T08:05:37.137Z,1.10
2022-10-04T08:07:52.164Z,1.20
2022-10-04T08:10:07.102Z,0.90
2022-10-04T08:12:22.269Z,0.73
2022-10-04T08:14:39.915Z,1.17
2022-10-04T08:16:55.290Z,0.70
2022-10-04T08:19:13.330Z,0.83
2022-10-04T08:21:26.931Z,1.10
2022-10-04T08:23:51.224Z,0.90
2022-10-04T08:26:07.234Z,1.30
2022-10-04T08:28:39.332Z,1.03
2022-10-04T08:31:05.380Z,1.23
2022-10-04T08:33:21.292Z,1.33
2022-10-04T08:35:39.817Z,1.27
2022-10-04T08:37:54.851Z,1.10
2022-10-04T08:40:19.178Z,0.90
2022-10-04T08:42:42.814Z,1.00
2022-10-04T08:45:21.072Z,0.90
2022-10-04T08:47:50.119Z,1.07
2022-10-04T08:50:13.912Z,1.00
2022-10-04T08:52:31.247Z,0.70
2022-10-04T08:55:10.788Z,0.80
2022-10-04T08:57:28.388Z,0.93
2022-10-04T08:59:52.755Z,1.10
2022-10-04T09:02:13.666Z,0.90
2022-10-04T09:04:46.526Z,1.33
2022-10-04T09:07:01.633Z,0.90
2022-10-04T09:09:23.807Z,1.30
2022-10-04T09:11:43.948Z,1.03
2022-10-04T09:14:05.087Z,1.00
2022-10-04T09:16:20.948Z,0.90
2022-10-04T09:18:48.360Z,1.03
2022-10-04T09:21:01.295Z,1.10
2022-10-04T09:23:15.323Z,1.23
2022-10-04T09:25:28.829Z,1.13
2022-10-04T09:27:58.150Z,1.10
2022-10-04T09:30:15.144Z,0.80
2022-10-04T09:32:40.475Z,1.43
2022-10-04T09:34:58.850Z,0.80
2022-10-04T09:37:18.091Z,0.90
2022-10-04T09:39:45.372Z,1.10
2022-10-04T09:42:09.351Z,0.90
2022-10-04T09:44:36.111Z,0.80
2022-10-04T09:46:56.363Z,1.00
2022-10-04T09:49:09.749Z,1.20
2022-10-04T09:51:40.513Z,1.10
2022-10-04T09:53:57.248Z,1.13
2022-10-04T09:56:12.799Z,0.90
2022-10-04T09:58:31.856Z,1.20
2022-10-04T10:00:45.795Z,1.33
2022-10-04T10:03:15.727Z,1.27
2022-10-04T10:05:46.174Z,1.60
2022-10-04T10:07:56.342Z,0.90
2022-10-04T10:10:32.688Z,0.80
2022-10-04T10:13:13.239Z,1.10
2022-10-04T10:15:27.341Z,2.43
2022-10-04T10:17:41.208Z,1.20
2022-10-04T10:20:05.731Z,1.03
2022-10-04T10:22:29.228Z,1.23
2022-10-04T10:24:58.131Z,1.13
2022-10-04T10:27:28.093Z,1.30
2022-10-04T10:29:55.769Z,1.63
2022-10-04T10:32:21.928Z,1.10
2022-10-04T10:34:47.315Z,1.23
2022-10-04T10:37:01.187Z,1.23
2022-10-04T10:39:23.868Z,1.27
2022-10-04T10:41:38.107Z,0.90
2022-10-04T10:43:56.832Z,1.00
2022-10-04T10:46:14.145Z,1.30
2022-10-04T10:48:26.715Z,1.50
2022-10-04T10:51:03.643Z,1.10
2022-10-04T10:53:18.352Z,1.20
2022-10-04T10:55:57.479Z,1.77
2022-10-04T10:58:16.850Z,0.97
2022-10-04T11:00:27.921Z,1.00
2022-10-04T11:03:12.086Z,1.23
2022-10-04T11:05:37.324Z,1.50
2022-10-04T11:07:51.975Z,0.90
2022-10-04T11:10:22.441Z,1.10
2022-10-04T11:12:58.560Z,1.00
2022-10-04T11:15:30.171Z,1.00
2022-10-04T11:18:06.421Z,1.13
2022-10-04T11:20:31.681Z,1.17
2022-10-04T11:23:06.385Z,1.10
2022-10-04T11:25:36.465Z,1.10
2022-10-04T11:27:52.559Z,1.10
2022-10-04T11:30:23.466Z,1.07
2022-10-04T11:32:50.748Z,1.30
2022-10-04T11:35:15.152Z,1.00
2022-10-04T11:37:35.619Z,1.10
2022-10-04T11:40:08.123Z,1.20
2022-10-04T11:42:21.778Z,1.20
2022-10-04T11:44:45.439Z,1.20
2022-10-04T11:46:57.726Z,1.00
2022-10-04T11:49:19.905Z,1.00
2022-10-04T11:52:01.227Z,1.07
2022-10-04T11:54:34.013Z,1.00
2022-10-04T11:56:49.362Z,0.93
2022-10-04T11:59:06.049Z,0.90
2022-10-04T12:01:30.536Z,0.90
2022-10-04T12:03:51.157Z,1.13
2022-10-04T12:06:18.780Z,1.00
2022-10-04T12:08:42.516Z,1.00
2022-10-04T12:11:04.013Z,1.20
2022-10-04T12:13:31.174Z,0.90
2022-10-04T12:15:45.771Z,1.20
2022-10-04T12:18:10.009Z,1.30
2022-10-04T12:20:29.073Z,1.00
2022-10-04T12:22:53.521Z,0.90
2022-10-04T12:25:09.381Z,0.90
2022-10-04T12:27:45.016Z,1.00
2022-10-04T12:30:07.158Z,1.03
2022-10-04T12:32:18.779Z,1.03
2022-10-04T12:34:30.408Z,0.80
2022-10-04T12:36:49.826Z,1.17
2022-10-04T12:39:10.692Z,0.90
2022-10-04T12:41:26.495Z,1.00
2022-10-04T12:43:39.187Z,1.00
2022-10-04T12:45:58.507Z,0.97
2022-10-04T12:48:19.161Z,0.80
2022-10-04T12:50:33.158Z,1.07
2022-10-04T12:52:47.526Z,1.10
2022-10-04T12:54:58.943Z,0.90
2022-10-04T12:57:25.319Z,1.00
2022-10-04T12:59:47.943Z,0.83
2022-10-04T13:02:06.472Z,0.90
2022-10-04T13:04:21.930Z,1.00
2022-10-04T13:06:41.163Z,1.10
2022-10-04T13:08:58.490Z,1.00
2022-10-04T13:11:25.532Z,0.97
2022-10-04T13:13:44.813Z,1.03
2022-10-04T13:18:34.828Z,1.13
2022-10-04T13:20:51.024Z,1.13
2022-10-04T13:23:02.331Z,1.10
2022-10-04T13:25:24.807Z,1.20
2022-10-04T13:27:38.593Z,1.27
2022-10-04T13:29:51.972Z,1.20
2022-10-04T13:32:03.356Z,1.10
2022-10-04T13:34:20.096Z,1.10
2022-10-04T13:36:32.789Z,1.30
2022-10-04T13:38:58.122Z,1.10
2022-10-04T13:41:16.813Z,1.07
2022-10-04T13:43:49.812Z,1.57
2022-10-04T13:46:04.514Z,1.23
2022-10-04T13:48:31.228Z,1.33
2022-10-04T13:50:46.874Z,1.23
2022-10-04T13:53:16.295Z,1.00
2022-10-04T13:55:46.277Z,1.10
2022-10-04T13:58:00.043Z,1.17
2022-10-04T14:00:12.699Z,1.40
2022-10-04T14:02:32.536Z,1.40
2022-10-04T14:04:57.348Z,1.40
2022-10-04T14:07:21.202Z,1.20
2022-10-04T14:09:43.060Z,1.37
2022-10-04T14:12:16.247Z,1.43
2022-10-04T14:14:43.949Z,1.10
2022-10-04T14:17:06.182Z,1.03
2022-10-04T14:19:25.010Z,1.00
2022-10-04T14:21:51.805Z,0.87
2022-10-04T14:24:19.051Z,1.00
2022-10-04T14:26:43.429Z,1.43
2022-10-04T14:29:00.782Z,1.10
2022-10-04T14:31:20.292Z,0.87
2022-10-04T14:33:49.913Z,1.10
2022-10-04T14:36:13.967Z,1.10
2022-10-04T14:38:41.147Z,1.20
2022-10-04T14:41:08.693Z,1.20
2022-10-04T14:43:32.588Z,0.93
2022-10-04T14:45:46.929Z,1.00
2022-10-04T14:48:21.809Z,1.10
2022-10-04T14:50:32.440Z,1.10
2022-10-04T14:52:48.646Z,1.23
2022-10-04T14:55:03.988Z,1.30
2022-10-04T14:57:21.480Z,1.47
2022-10-04T14:59:40.483Z,1.20
2022-10-04T15:02:08.063Z,1.20
2022-10-04T15:04:26.424Z,1.53
2022-10-04T15:06:40.443Z,1.00
2022-10-04T15:09:22.623Z,1.10
2022-10-04T15:11:39.535Z,1.23
2022-10-04T15:13:56.094Z,1.20
2022-10-04T15:16:18.786Z,1.30
2022-10-04T15:18:36.069Z,1.10
2022-10-04T15:20:52.661Z,1.27
2022-10-04T15:23:11.860Z,1.30
2022-10-04T15:25:39.628Z,1.00
2022-10-04T15:27:53.850Z,1.00
2022-10-04T15:30:05.387Z,1.10
2022-10-04T15:32:21.023Z,1.10
2022-10-04T15:34:34.664Z,1.30
2022-10-04T15:37:02.377Z,1.27
2022-10-04T15:39:27.754Z,1.20
2022-10-04T15:41:39.664Z,1.00
2022-10-04T15:44:12.305Z,1.10
2022-10-04T15:46:48.371Z,1.47
2022-10-04T15:49:07.451Z,1.30
2022-10-04T15:51:21.959Z,1.40
2022-10-04T15:53:43.802Z,1.50
2022-10-04T15:56:03.200Z,1.73
2022-10-04T15:58:27.192Z,2.03
2022-10-04T16:00:46.343Z,2.10
2022-10-04T16:03:11.110Z,2.13
2022-10-04T16:05:25.499Z,1.70
2022-10-04T16:07:53.023Z,1.50
2022-10-04T16:10:10.221Z,1.93
2022-10-04T16:12:23.253Z,1.57
2022-10-04T16:14:56.547Z,1.40
2022-10-04T16:17:18.886Z,1.13
2022-10-04T16:19:38.241Z,1.20
2022-10-04T16:21:52.176Z,1.27
2022-10-04T16:24:22.110Z,1.20
2022-10-04T16:26:46.477Z,1.50
2022-10-04T16:31:44.154Z,2.30
2022-10-04T16:33:57.434Z,2.27
2022-10-04T16:36:10.284Z,1.83
2022-10-04T16:38:23.694Z,1.87
2022-10-04T16:40:38.645Z,1.90
2022-10-04T16:42:53.101Z,1.90
2022-10-04T16:45:03.747Z,2.00
2022-10-04T16:47:22.374Z,1.70
2022-10-04T16:49:37.604Z,1.70
2022-10-04T16:52:09.512Z,1.80
2022-10-04T16:54:48.718Z,1.77
2022-10-04T16:57:15.153Z,1.50
2022-10-04T16:59:39.141Z,1.53
2022-10-04T17:02:03.597Z,1.63
2022-10-04T17:04:42.954Z,1.67
2022-10-04T17:06:55.988Z,1.37
2022-10-04T17:09:13.463Z,1.60
2022-10-04T17:11:40.108Z,2.13
2022-10-04T17:13:56.414Z,1.73
2022-10-04T17:16:07.856Z,1.70
2022-10-04T17:18:28.482Z,1.50
2022-10-04T17:20:47.073Z,1.60
2022-10-04T17:23:03.784Z,1.80
2022-10-04T17:25:21.076Z,1.60
2022-10-04T17:27:36.682Z,1.70
2022-10-04T17:29:53.802Z,1.60
2022-10-04T17:32:17.567Z,1.70
2022-10-04T17:34:36.269Z,1.80
2022-10-04T17:36:47.038Z,2.20
2022-10-04T17:39:02.924Z,2.90
2022-10-04T17:41:16.619Z,2.40
2022-10-04T17:43:29.752Z,3.27
2022-10-04T17:45:50.320Z,2.67
2022-10-04T17:48:20.281Z,3.50
2022-10-04T17:50:48.161Z,5.10
2022-10-04T17:53:16.637Z,9.00
2022-10-04T17:55:29.544Z,5.00
2022-10-04T17:57:41.639Z,4.07
2022-10-04T17:59:53.052Z,4.30
2022-10-04T18:02:03.657Z,3.30
2022-10-04T18:04:17.490Z,3.13
2022-10-04T18:06:32.867Z,3.17
2022-10-04T18:08:46.844Z,2.43
2022-10-04T18:11:00.228Z,2.40
2022-10-04T18:13:15.624Z,1.90
2022-10-04T18:15:26.814Z,2.77
2022-10-04T18:17:40.897Z,1.97
2022-10-04T18:19:55.349Z,2.30
2022-10-04T18:22:07.529Z,1.87
2022-10-04T18:24:22.552Z,2.27
2022-10-04T18:26:35.643Z,2.10
2022-10-04T18:28:46.266Z,2.10
2022-10-04T18:30:59.777Z,2.10
2022-10-04T18:33:16.373Z,1.80
2022-10-04T18:35:27.727Z,1.60
2022-10-04T18:37:39.389Z,2.20
2022-10-04T18:39:55.425Z,1.60
2022-10-04T18:42:20.147Z,2.33
2022-10-04T18:44:31.933Z,2.47
2022-10-04T18:46:43.815Z,2.00
2022-10-04T18:48:57.486Z,1.90
2022-10-04T18:51:24.274Z,1.57
2022-10-04T18:53:45.881Z,1.63
2022-10-04T18:56:01.043Z,1.67
2022-10-04T18:58:36.612Z,1.77
2022-10-04T19:01:07.823Z,2.77
2022-10-04T19:03:23.643Z,2.10
2022-10-04T19:05:39.356Z,1.83
2022-10-04T19:07:53.752Z,2.33
2022-10-04T19:10:10.472Z,2.10
2022-10-04T19:12:25.356Z,2.00
2022-10-04T19:14:43.420Z,2.20
2022-10-04T19:16:57.950Z,1.83
2022-10-04T19:19:22.587Z,2.17
2022-10-04T19:21:42.862Z,2.03
2022-10-04T19:24:01.438Z,2.20
2022-10-04T19:28:45.069Z,2.33
2022-10-04T19:31:07.220Z,2.37
2022-10-04T19:33:21.321Z,2.40
2022-10-04T19:35:38.253Z,2.00
2022-10-04T19:37:54.104Z,2.07
2022-10-04T19:40:09.123Z,1.93
2022-10-04T19:42:20.121Z,1.70
2022-10-04T19:44:35.315Z,1.90
2022-10-04T19:46:47.810Z,1.57
2022-10-04T19:48:58.761Z,1.67
2022-10-04T19:51:12.648Z,1.80
2022-10-04T19:53:26.476Z,1.80
2022-10-04T19:55:44.119Z,1.70
2022-10-04T19:57:55.014Z,1.60
2022-10-04T20:00:04.299Z,1.63
2022-10-04T20:02:20.359Z,1.90
2022-10-04T20:04:41.813Z,1.50
2022-10-04T20:06:51.970Z,1.40
2022-10-04T20:09:23.999Z,1.30
2022-10-04T20:11:49.945Z,1.50
2022-10-04T20:14:17.720Z,1.57
2022-10-04T20:16:42.457Z,1.67
2022-10-04T20:19:01.503Z,1.90
2022-10-04T20:21:12.862Z,1.83
2022-10-04T20:23:50.101Z,1.80
2022-10-04T20:26:04.028Z,1.70
2022-10-04T20:28:13.780Z,1.70
2022-10-04T20:30:25.664Z,1.47
2022-10-04T20:32:53.539Z,1.60
2022-10-04T20:35:06.424Z,1.87
2022-10-04T20:37:19.333Z,1.90
2022-10-04T20:39:43.465Z,1.80
2022-10-04T20:42:25.519Z,2.07
2022-10-04T20:44:45.756Z,1.97
2022-10-04T20:46:55.367Z,2.00
2022-10-04T20:49:05.515Z,2.00
2022-10-04T20:51:21.775Z,2.03
2022-10-04T20:53:34.269Z,2.13
2022-10-04T20:55:45.825Z,1.90
2022-10-04T20:57:54.929Z,2.07
2022-10-04T21:00:07.007Z,2.30
2022-10-04T21:02:19.331Z,2.30
2022-10-04T21:04:33.826Z,1.90
2022-10-04T21:06:54.037Z,2.07
2022-10-04T21:09:02.931Z,1.80
2022-10-04T21:11:20.044Z,1.80
2022-10-04T21:13:43.564Z,2.03
2022-10-04T21:15:57.800Z,1.90
2022-10-04T21:18:07.678Z,2.03
2022-10-04T21:20:17.140Z,1.87
2022-10-04T21:22:53.297Z,2.20
2022-10-04T21:25:05.357Z,2.20
2022-10-04T21:27:14.872Z,1.70
2022-10-04T21:29:23.697Z,1.90
2022-10-04T21:31:34.433Z,1.73
2022-10-04T21:33:43.758Z,1.97
2022-10-04T21:35:52.777Z,1.90
2022-10-04T21:38:01.367Z,2.07
2022-10-04T21:40:12.278Z,2.00
2022-10-04T21:42:21.236Z,2.20
2022-10-04T21:44:30.291Z,1.60
2022-10-04T21:46:39.165Z,2.03
2022-10-04T21:48:47.692Z,1.80
2022-10-04T21:50:57.412Z,2.17
2022-10-04T21:53:06.441Z,1.70
2022-10-04T21:55:17.121Z,2.10
2022-10-04T21:57:26.430Z,1.77
2022-10-04T21:59:35.262Z,2.20
2022-10-04T22:01:43.852Z,2.17
2022-10-04T22:03:53.283Z,2.10
2022-10-04T22:06:01.927Z,2.10
2022-10-04T22:08:11.043Z,1.70
2022-10-04T22:10:21.370Z,2.43
2022-10-04T22:12:30.465Z,2.30
2022-10-04T22:14:39.456Z,2.43
2022-10-04T22:16:49.029Z,2.00
2022-10-04T22:18:58.115Z,2.17
2022-10-04T22:21:07.134Z,2.30
2022-10-04T22:23:19.214Z,2.20
2022-10-04T22:25:30.036Z,2.50
2022-10-04T22:27:38.929Z,2.20
2022-10-04T22:29:48.222Z,2.70
2022-10-04T22:31:59.680Z,2.60
2022-10-04T22:34:11.553Z,2.27
2022-10-04T22:36:22.715Z,2.50
2022-10-04T22:38:31.731Z,2.30
2022-10-04T22:40:42.120Z,2.67
2022-10-04T22:42:54.607Z,2.87
2022-10-04T22:45:04.025Z,2.87
2022-10-04T22:47:13.856Z,2.30
2022-10-04T22:49:24.395Z,2.70
2022-10-04T22:51:34.111Z,2.73
2022-10-04T22:53:43.943Z,2.63
2022-10-04T22:55:56.215Z,2.87
2022-10-04T22:58:05.261Z,2.93
2022-10-04T23:00:14.473Z,2.53
2022-10-04T23:02:24.525Z,2.43
2022-10-04T23:04:33.717Z,2.60
2022-10-04T23:06:43.083Z,2.60
2022-10-04T23:08:52.198Z,2.60
2022-10-04T23:11:02.708Z,2.63
2022-10-04T23:13:11.628Z,2.70
2022-10-04T23:15:21.613Z,2.73
2022-10-04T23:17:31.504Z,3.00
2022-10-04T23:19:40.530Z,2.50
2022-10-04T23:21:50.544Z,2.93
2022-10-04T23:24:03.947Z,2.90
2022-10-04T23:26:22.088Z,2.60
2022-10-04T23:28:31.531Z,2.70
2022-10-04T23:30:40.713Z,2.60
2022-10-04T23:32:50.603Z,2.80
2022-10-04T23:35:00.145Z,2.93
2022-10-04T23:37:16.177Z,2.90
2022-10-04T23:39:25.984Z,3.27
2022-10-04T23:41:36.148Z,3.23
2022-10-04T23:43:45.251Z,3.03
2022-10-04T23:45:54.073Z,3.20
2022-10-04T23:48:02.756Z,2.97
2022-10-04T23:50:19.933Z,2.70
2022-10-04T23:52:34.695Z,2.60
2022-10-04T23:54:43.715Z,3.07
2022-10-04T23:56:54.423Z,2.70
2022-10-04T23:59:02.957Z,3.00
